createdAt,value
2018-09-22T00:00:01.592Z,0.00
2018-09-22T00:01:01.588Z,0.00
2018-09-22T00:02:01.586Z,0.00
2018-09-22T00:03:01.561Z,0.00
2018-09-22T00:04:01.556Z,0.00
2018-09-22T00:05:01.536Z,0.00
2018-09-22T00:06:01.532Z,0.00
2018-09-22T00:07:01.531Z,0.00
2018-09-22T00:08:01.506Z,0.00
2018-09-22T00:09:01.500Z,0.00
2018-09-22T00:10:01.502Z,0.00
2018-09-22T00:11:01.472Z,0.00
2018-09-22T00:12:01.459Z,0.00
2018-09-22T00:13:01.455Z,0.00
2018-09-22T00:14:01.443Z,0.00
2018-09-22T00:15:01.434Z,0.00
2018-09-22T00:16:01.437Z,0.00
2018-09-22T00:17:01.404Z,0.00
2018-09-22T00:18:01.426Z,0.00
2018-09-22T00:19:01.385Z,0.00
2018-09-22T00:20:01.374Z,0.00
2018-09-22T00:21:01.384Z,0.00
2018-09-22T00:22:01.405Z,0.00
2018-09-22T00:23:01.358Z,0.00
2018-09-22T00:24:01.338Z,0.00
2018-09-22T00:25:01.319Z,0.00
2018-09-22T00:26:01.307Z,0.00
2018-09-22T00:27:01.302Z,0.00
2018-09-22T00:28:01.306Z,0.00
2018-09-22T00:29:01.275Z,0.00
2018-09-22T00:30:01.267Z,0.00
2018-09-22T00:31:01.255Z,0.00
2018-09-22T00:32:01.246Z,0.00
2018-09-22T00:33:01.238Z,0.00
2018-09-22T00:34:01.241Z,0.00
2018-09-22T00:35:01.212Z,0.00
2018-09-22T00:36:01.206Z,0.00
2018-09-22T00:37:01.188Z,0.00
2018-09-22T00:38:01.179Z,0.00
2018-09-22T00:39:01.177Z,0.00
2018-09-22T00:40:01.151Z,0.00
2018-09-22T00:41:01.153Z,0.00
2018-09-22T00:42:01.139Z,0.00
2018-09-22T00:43:01.154Z,0.00
2018-09-22T00:44:01.125Z,0.00
2018-09-22T00:45:01.106Z,0.00
2018-09-22T00:46:01.113Z,0.00
2018-09-22T00:47:01.084Z,0.00
2018-09-22T00:48:01.076Z,0.00
2018-09-22T00:49:01.073Z,0.00
2018-09-22T00:50:01.049Z,0.00
2018-09-22T00:51:01.038Z,0.00
2018-09-22T00:52:01.024Z,0.00
2018-09-22T00:53:01.024Z,0.00
2018-09-22T00:54:01.007Z,0.00
2018-09-22T00:55:01.014Z,0.00
2018-09-22T00:56:00.987Z,0.00
2018-09-22T00:57:00.971Z,0.00
2018-09-22T00:58:00.961Z,0.00
2018-09-22T00:59:00.951Z,0.00
2018-09-22T01:00:00.946Z,0.00
2018-09-22T01:01:00.943Z,0.00
2018-09-22T01:02:00.917Z,0.00
2018-09-22T01:03:00.903Z,0.00
2018-09-22T01:04:00.893Z,0.00
2018-09-22T01:05:00.891Z,0.00
2018-09-22T01:06:00.874Z,0.00
2018-09-22T01:07:00.879Z,0.00
2018-09-22T01:08:00.865Z,0.00
2018-09-22T01:09:00.839Z,0.00
2018-09-22T01:10:00.841Z,0.00
2018-09-22T01:11:00.820Z,0.00
2018-09-22T01:12:00.802Z,0.00
2018-09-22T01:13:00.803Z,0.00
2018-09-22T01:14:00.788Z,0.00
2018-09-22T01:15:00.808Z,0.00
2018-09-22T01:16:00.759Z,0.00
2018-09-22T01:17:00.758Z,0.00
2018-09-22T01:18:00.746Z,0.00
2018-09-22T01:19:00.735Z,0.00
2018-09-22T01:20:00.723Z,0.00
2018-09-22T01:21:00.715Z,0.00
2018-09-22T01:22:00.695Z,0.00
2018-09-22T01:23:00.694Z,0.00
2018-09-22T01:24:00.670Z,0.00
2018-09-22T01:25:00.675Z,0.00
2018-09-22T01:26:00.674Z,0.00
2018-09-22T01:27:00.650Z,0.00
2018-09-22T01:28:00.632Z,0.00
2018-09-22T01:29:00.615Z,0.00
2018-09-22T01:30:00.612Z,0.00
2018-09-22T01:31:00.608Z,0.00
2018-09-22T01:32:00.589Z,0.00
2018-09-22T01:33:00.571Z,0.00
2018-09-22T01:34:00.583Z,0.00
2018-09-22T01:35:00.552Z,0.00
2018-09-22T01:36:00.537Z,0.00
2018-09-22T01:37:00.533Z,0.00
2018-09-22T01:38:00.524Z,0.00
2018-09-22T01:39:00.512Z,0.00
2018-09-22T01:40:00.515Z,0.00
2018-09-22T01:41:00.480Z,0.00
2018-09-22T01:42:00.474Z,0.00
2018-09-22T01:43:00.476Z,0.00
2018-09-22T01:44:00.450Z,0.00
2018-09-22T01:45:00.459Z,0.00
2018-09-22T01:46:00.433Z,0.00
2018-09-22T01:47:00.419Z,0.00
2018-09-22T01:48:00.406Z,0.00
2018-09-22T01:49:00.400Z,0.00
2018-09-22T01:50:00.400Z,0.00
2018-09-22T01:51:00.379Z,0.00
2018-09-22T01:52:00.369Z,0.00
2018-09-22T01:53:00.352Z,0.00
2018-09-22T01:54:00.342Z,0.00
2018-09-22T01:55:00.346Z,0.00
2018-09-22T01:56:00.316Z,0.00
2018-09-22T01:57:00.315Z,0.00
2018-09-22T01:58:00.300Z,0.00
2018-09-22T01:59:00.289Z,0.00
2018-09-22T02:00:00.281Z,0.00
2018-09-22T02:01:00.281Z,0.00
2018-09-22T02:02:00.253Z,0.00
2018-09-22T02:03:00.249Z,0.00
2018-09-22T02:04:00.242Z,0.00
2018-09-22T02:05:00.217Z,0.00
2018-09-22T02:06:00.210Z,0.00
2018-09-22T02:07:00.225Z,0.00
2018-09-22T02:08:00.187Z,0.00
2018-09-22T02:09:00.181Z,0.00
2018-09-22T02:10:00.170Z,0.00
2018-09-22T02:11:00.158Z,0.00
2018-09-22T02:12:00.142Z,0.00
2018-09-22T02:13:00.148Z,0.00
2018-09-22T02:14:00.127Z,0.00
2018-09-22T02:15:00.113Z,0.00
2018-09-22T02:16:00.104Z,0.00
2018-09-22T02:17:00.092Z,0.00
2018-09-22T02:18:00.087Z,0.00
2018-09-22T02:19:00.077Z,0.00
2018-09-22T02:20:00.060Z,0.00
2018-09-22T02:21:00.048Z,0.00
2018-09-22T02:22:00.030Z,0.00
2018-09-22T02:23:00.034Z,0.00
2018-09-22T02:24:00.012Z,0.00
2018-09-22T02:25:00.008Z,0.00
2018-09-22T02:25:59.998Z,0.00
2018-09-22T02:26:59.989Z,0.00
2018-09-22T02:27:59.984Z,0.00
2018-09-22T02:28:59.956Z,0.00
2018-09-22T02:29:59.941Z,0.00
2018-09-22T02:30:59.930Z,0.00
2018-09-22T02:31:59.933Z,0.00
2018-09-22T02:32:59.925Z,0.00
2018-09-22T02:33:59.909Z,0.00
2018-09-22T02:34:59.889Z,0.00
2018-09-22T02:35:59.877Z,0.00
2018-09-22T02:36:59.871Z,0.00
2018-09-22T02:37:59.938Z,0.00
2018-09-22T02:38:59.857Z,0.00
2018-09-22T02:39:59.851Z,0.00
2018-09-22T02:40:59.825Z,0.00
2018-09-22T02:41:59.819Z,0.00
2018-09-22T02:42:59.802Z,0.00
2018-09-22T02:43:59.799Z,0.00
2018-09-22T02:44:59.796Z,0.00
2018-09-22T02:45:59.776Z,0.00
2018-09-22T02:46:59.816Z,0.00
2018-09-22T02:47:59.762Z,0.00
2018-09-22T02:48:59.738Z,0.00
2018-09-22T02:49:59.723Z,0.00
2018-09-22T02:50:59.719Z,0.00
2018-09-22T02:51:59.773Z,0.00
2018-09-22T02:52:59.691Z,0.00
2018-09-22T02:53:59.678Z,0.00
2018-09-22T02:54:59.668Z,0.00
2018-09-22T02:55:59.658Z,0.00
2018-09-22T02:56:59.742Z,0.00
2018-09-22T02:57:59.652Z,0.00
2018-09-22T02:58:59.630Z,0.00
2018-09-22T02:59:59.619Z,0.00
2018-09-22T03:00:59.605Z,0.00
2018-09-22T03:01:59.634Z,0.00
2018-09-22T03:02:59.600Z,0.00
2018-09-22T03:03:59.572Z,0.00
2018-09-22T03:04:59.561Z,0.00
2018-09-22T03:05:59.553Z,0.00
2018-09-22T03:06:59.589Z,0.00
2018-09-22T03:07:59.538Z,0.00
2018-09-22T03:08:59.520Z,0.00
2018-09-22T03:09:59.525Z,0.00
2018-09-22T03:10:59.498Z,0.00
2018-09-22T03:11:59.520Z,0.00
2018-09-22T03:12:59.484Z,0.00
2018-09-22T03:13:59.458Z,0.00
2018-09-22T03:14:59.448Z,0.00
2018-09-22T03:15:59.439Z,0.00
2018-09-22T03:16:59.432Z,0.00
2018-09-22T03:17:59.436Z,0.00
2018-09-22T03:18:59.414Z,0.00
2018-09-22T03:19:59.399Z,0.00
2018-09-22T03:20:59.387Z,0.00
2018-09-22T03:21:59.367Z,0.00
2018-09-22T03:22:59.389Z,0.00
2018-09-22T03:23:59.355Z,0.00
2018-09-22T03:24:59.368Z,0.00
2018-09-22T03:25:59.339Z,0.00
2018-09-22T03:26:59.348Z,0.00
2018-09-22T03:27:59.308Z,0.00
2018-09-22T03:28:59.314Z,0.00
2018-09-22T03:29:59.287Z,0.00
2018-09-22T03:30:59.280Z,0.00
2018-09-22T03:31:59.267Z,0.00
2018-09-22T03:32:59.252Z,0.00
2018-09-22T03:33:59.239Z,0.00
2018-09-22T03:34:59.264Z,0.00
2018-09-22T03:35:59.218Z,0.00
2018-09-22T03:36:59.212Z,0.00
2018-09-22T03:37:59.203Z,0.00
2018-09-22T03:38:59.183Z,0.00
2018-09-22T03:39:59.176Z,0.00
2018-09-22T03:40:59.180Z,0.00
2018-09-22T03:41:59.156Z,0.00
2018-09-22T03:42:59.147Z,0.00
2018-09-22T03:43:59.133Z,0.00
2018-09-22T03:44:59.120Z,0.00
2018-09-22T03:45:59.120Z,0.00
2018-09-22T03:46:59.115Z,0.00
2018-09-22T03:47:59.087Z,0.00
2018-09-22T03:48:59.078Z,0.00
2018-09-22T03:49:59.071Z,0.00
2018-09-22T03:50:59.062Z,0.00
2018-09-22T03:51:59.048Z,0.00
2018-09-22T03:52:59.043Z,0.00
2018-09-22T03:53:59.015Z,0.00
2018-09-22T03:54:59.018Z,0.00
2018-09-22T03:55:59.021Z,0.00
2018-09-22T03:56:58.987Z,0.00
2018-09-22T03:57:58.988Z,0.00
2018-09-22T03:58:58.964Z,0.00
2018-09-22T03:59:58.959Z,0.00
2018-09-22T04:00:58.956Z,0.00
2018-09-22T04:01:58.939Z,0.00
2018-09-22T04:02:58.945Z,0.00
2018-09-22T04:03:58.912Z,0.00
2018-09-22T04:04:58.897Z,0.00
2018-09-22T04:05:58.885Z,0.00
2018-09-22T04:06:58.876Z,0.00
2018-09-22T04:07:58.866Z,0.00
2018-09-22T04:08:58.876Z,0.00
2018-09-22T04:09:58.852Z,0.00
2018-09-22T04:10:58.841Z,0.00
2018-09-22T04:11:58.824Z,0.00
2018-09-22T04:12:58.818Z,0.00
2018-09-22T04:13:58.803Z,0.00
2018-09-22T04:14:58.798Z,0.00
2018-09-22T04:15:58.794Z,0.00
2018-09-22T04:16:58.764Z,0.00
2018-09-22T04:17:58.751Z,0.00
2018-09-22T04:18:58.741Z,0.00
2018-09-22T04:19:58.748Z,0.00
2018-09-22T04:20:58.728Z,0.00
2018-09-22T04:21:58.716Z,0.00
2018-09-22T04:22:58.713Z,0.00
2018-09-22T04:23:58.690Z,0.00
2018-09-22T04:24:58.686Z,0.00
2018-09-22T04:25:58.669Z,0.00
2018-09-22T04:26:58.660Z,0.00
2018-09-22T04:27:58.645Z,0.00
2018-09-22T04:28:58.635Z,0.00
2018-09-22T04:29:58.631Z,0.00
2018-09-22T04:30:58.614Z,0.00
2018-09-22T04:31:58.608Z,0.00
2018-09-22T04:32:58.593Z,0.00
2018-09-22T04:33:58.584Z,0.00
2018-09-22T04:34:58.582Z,0.00
2018-09-22T04:35:58.561Z,0.00
2018-09-22T04:36:58.556Z,0.00
2018-09-22T04:37:58.532Z,0.00
2018-09-22T04:38:58.520Z,0.00
2018-09-22T04:39:58.528Z,0.00
2018-09-22T04:40:58.506Z,0.00
2018-09-22T04:41:58.498Z,0.00
2018-09-22T04:42:58.481Z,0.00
2018-09-22T04:43:58.471Z,0.00
2018-09-22T04:44:58.476Z,0.00
2018-09-22T04:45:58.450Z,0.00
2018-09-22T04:46:58.439Z,0.00
2018-09-22T04:47:58.426Z,0.00
2018-09-22T04:48:58.412Z,0.00
2018-09-22T04:49:58.397Z,0.00
2018-09-22T04:50:58.416Z,0.00
2018-09-22T04:51:58.378Z,4.00
2018-09-22T04:52:58.371Z,0.00
2018-09-22T04:53:58.362Z,0.00
2018-09-22T04:54:58.364Z,4.00
2018-09-22T04:55:58.340Z,4.00
2018-09-22T04:56:58.341Z,4.00
2018-09-22T04:57:58.308Z,4.00
2018-09-22T04:58:58.306Z,4.00
2018-09-22T04:59:58.292Z,4.00
2018-09-22T05:00:58.281Z,8.00
2018-09-22T05:01:58.272Z,8.00
2018-09-22T05:02:58.267Z,8.00
2018-09-22T05:03:58.245Z,12.00
2018-09-22T05:04:58.251Z,12.00
2018-09-22T05:05:58.236Z,16.00
2018-09-22T05:06:58.220Z,16.00
2018-09-22T05:07:58.207Z,20.00
2018-09-22T05:08:58.204Z,28.00
2018-09-22T05:09:58.179Z,32.00
2018-09-22T05:10:58.167Z,36.00
2018-09-22T05:11:58.162Z,40.00
2018-09-22T05:12:58.149Z,40.00
2018-09-22T05:13:58.141Z,48.00
2018-09-22T05:14:58.144Z,52.00
2018-09-22T05:15:58.114Z,52.00
2018-09-22T05:16:58.137Z,56.00
2018-09-22T05:17:58.100Z,52.00
2018-09-22T05:18:58.098Z,56.00
2018-09-22T05:19:58.084Z,56.00
2018-09-22T05:20:58.058Z,60.00
2018-09-22T05:21:58.043Z,64.00
2018-09-22T05:22:58.035Z,64.00
2018-09-22T05:23:58.042Z,68.00
2018-09-22T05:24:58.025Z,72.00
2018-09-22T05:25:58.008Z,80.00
2018-09-22T05:26:58.023Z,92.00
2018-09-22T05:27:57.982Z,100.00
2018-09-22T05:28:57.977Z,104.00
2018-09-22T05:29:57.974Z,112.00
2018-09-22T05:30:57.953Z,124.00
2018-09-22T05:31:57.939Z,140.00
2018-09-22T05:32:57.929Z,156.00
2018-09-22T05:33:57.915Z,172.00
2018-09-22T05:34:57.906Z,184.00
2018-09-22T05:35:57.905Z,212.00
2018-09-22T05:36:57.890Z,240.00
2018-09-22T05:37:57.875Z,260.00
2018-09-22T05:38:57.866Z,280.00
2018-09-22T05:39:57.852Z,292.00
2018-09-22T05:40:57.854Z,312.00
2018-09-22T05:41:57.828Z,332.00
2018-09-22T05:42:57.814Z,344.00
2018-09-22T05:43:57.809Z,356.00
2018-09-22T05:44:57.796Z,364.00
2018-09-22T05:45:57.790Z,364.00
2018-09-22T05:46:57.785Z,372.00
2018-09-22T05:48:04.820Z,380.00
2018-09-22T05:48:57.753Z,396.00
2018-09-22T05:49:57.737Z,424.00
2018-09-22T05:50:57.722Z,452.00
2018-09-22T05:51:57.708Z,476.00
2018-09-22T05:52:57.697Z,504.00
2018-09-22T05:53:57.704Z,532.00
2018-09-22T05:54:57.681Z,556.00
2018-09-22T05:55:57.673Z,572.00
2018-09-22T05:56:57.671Z,588.00
2018-09-22T05:57:57.679Z,608.00
2018-09-22T05:58:57.636Z,612.00
2018-09-22T05:59:57.631Z,616.00
2018-09-22T06:00:57.617Z,640.00
2018-09-22T06:01:57.604Z,660.00
2018-09-22T06:02:57.589Z,660.00
2018-09-22T06:03:57.708Z,656.00
2018-09-22T06:04:57.577Z,636.00
2018-09-22T06:05:57.556Z,620.00
2018-09-22T06:06:57.548Z,616.00
2018-09-22T06:07:57.540Z,620.00
2018-09-22T06:08:57.532Z,640.00
2018-09-22T06:09:57.525Z,680.00
2018-09-22T06:10:57.504Z,700.00
2018-09-22T06:11:57.494Z,704.00
2018-09-22T06:12:57.528Z,716.00
2018-09-22T06:13:57.472Z,744.00
2018-09-22T06:14:57.484Z,780.00
2018-09-22T06:15:57.451Z,824.00
2018-09-22T06:16:57.438Z,844.00
2018-09-22T06:17:57.467Z,860.00
2018-09-22T06:18:57.427Z,876.00
2018-09-22T06:19:57.418Z,908.00
2018-09-22T06:20:57.396Z,944.00
2018-09-22T06:21:57.422Z,956.00
2018-09-22T06:22:57.420Z,980.00
2018-09-22T06:23:57.360Z,1028.00
2018-09-22T06:24:57.352Z,1100.00
2018-09-22T06:25:57.335Z,1172.00
2018-09-22T06:26:57.333Z,1240.00
2018-09-22T06:27:57.331Z,1312.00
2018-09-22T06:28:57.369Z,1376.00
2018-09-22T06:29:57.304Z,1428.00
2018-09-22T06:30:57.280Z,1540.00
2018-09-22T06:31:57.283Z,1720.00
2018-09-22T06:32:57.262Z,1636.00
2018-09-22T06:33:57.276Z,1724.00
2018-09-22T06:34:57.257Z,1728.00
2018-09-22T06:35:57.237Z,1696.00
2018-09-22T06:36:57.249Z,1596.00
2018-09-22T06:37:57.224Z,1584.00
2018-09-22T06:38:57.208Z,1528.00
2018-09-22T06:39:57.189Z,1488.00
2018-09-22T06:40:57.182Z,1532.00
2018-09-22T06:41:57.176Z,1564.00
2018-09-22T06:42:57.166Z,1612.00
2018-09-22T06:43:57.157Z,1608.00
2018-09-22T06:44:57.150Z,1596.00
2018-09-22T06:45:57.118Z,1568.00
2018-09-22T06:46:57.149Z,1548.00
2018-09-22T06:47:57.109Z,1564.00
2018-09-22T06:48:57.089Z,1592.00
2018-09-22T06:49:57.096Z,1620.00
2018-09-22T06:50:57.084Z,1644.00
2018-09-22T06:51:57.080Z,1676.00
2018-09-22T06:52:57.074Z,1740.00
2018-09-22T06:53:57.054Z,1744.00
2018-09-22T06:54:57.112Z,1768.00
2018-09-22T06:55:57.043Z,1812.00
2018-09-22T06:56:57.018Z,1972.00
2018-09-22T06:57:57.041Z,2076.00
2018-09-22T06:58:57.027Z,2212.00
2018-09-22T06:59:56.968Z,2324.00
2018-09-22T07:00:56.966Z,2340.00
2018-09-22T07:01:56.977Z,2400.00
2018-09-22T07:02:56.929Z,2332.00
2018-09-22T07:03:56.932Z,2196.00
2018-09-22T07:04:56.923Z,2268.00
2018-09-22T07:05:56.955Z,2200.00
2018-09-22T07:06:56.884Z,2124.00
2018-09-22T07:07:56.892Z,2096.00
2018-09-22T07:08:56.875Z,1964.00
2018-09-22T07:09:56.866Z,1888.00
2018-09-22T07:10:56.880Z,1956.00
2018-09-22T07:11:56.868Z,2004.00
2018-09-22T07:12:56.824Z,1948.00
2018-09-22T07:13:57.042Z,1916.00
2018-09-22T07:14:56.818Z,1944.00
2018-09-22T07:15:56.795Z,1912.00
2018-09-22T07:16:56.800Z,1928.00
2018-09-22T07:17:56.769Z,1988.00
2018-09-22T07:18:56.767Z,2060.00
2018-09-22T07:19:56.753Z,2136.00
2018-09-22T07:20:56.734Z,2152.00
2018-09-22T07:21:56.762Z,2224.00
2018-09-22T07:22:56.738Z,2340.00
2018-09-22T07:23:56.812Z,2456.00
2018-09-22T07:24:56.694Z,2564.00
2018-09-22T07:25:56.684Z,2724.00
2018-09-22T07:26:56.668Z,2880.00
2018-09-22T07:27:56.663Z,2908.00
2018-09-22T07:28:56.710Z,2892.00
2018-09-22T07:29:56.661Z,2940.00
2018-09-22T07:30:56.744Z,3040.00
2018-09-22T07:31:56.635Z,3048.00
2018-09-22T07:32:56.603Z,3224.00
2018-09-22T07:33:56.595Z,4160.00
2018-09-22T07:34:56.612Z,3872.00
2018-09-22T07:35:56.575Z,3916.00
2018-09-22T07:36:56.564Z,5116.00
2018-09-22T07:37:56.552Z,8876.00
2018-09-22T07:38:56.536Z,9396.00
2018-09-22T07:39:56.524Z,7708.00
2018-09-22T07:40:56.538Z,5216.00
2018-09-22T07:41:56.509Z,5788.00
2018-09-22T07:42:56.525Z,8072.00
2018-09-22T07:43:56.491Z,7316.00
2018-09-22T07:44:56.508Z,13128.00
2018-09-22T07:45:56.488Z,14284.00
2018-09-22T07:46:56.460Z,13692.00
2018-09-22T07:47:56.463Z,11796.00
2018-09-22T07:48:56.428Z,18016.00
2018-09-22T07:49:56.411Z,28800.00
2018-09-22T07:50:56.411Z,28128.00
2018-09-22T07:51:56.427Z,22240.00
2018-09-22T07:52:56.384Z,20608.00
2018-09-22T07:53:56.374Z,14796.00
2018-09-22T07:54:56.367Z,9984.00
2018-09-22T07:55:56.356Z,8124.00
2018-09-22T07:56:56.344Z,8032.00
2018-09-22T07:57:56.358Z,7352.00
2018-09-22T07:58:56.321Z,7104.00
2018-09-22T07:59:56.332Z,6704.00
2018-09-22T08:00:56.302Z,6180.00
2018-09-22T08:01:56.285Z,5928.00
2018-09-22T08:02:56.285Z,5688.00
2018-09-22T08:03:56.269Z,5896.00
2018-09-22T08:04:56.260Z,5868.00
2018-09-22T08:05:56.283Z,6096.00
2018-09-22T08:06:56.235Z,6300.00
2018-09-22T08:07:56.257Z,6368.00
2018-09-22T08:08:56.213Z,6456.00
2018-09-22T08:09:56.217Z,6764.00
2018-09-22T08:10:56.202Z,6900.00
2018-09-22T08:11:56.181Z,6648.00
2018-09-22T08:12:56.162Z,6972.00
2018-09-22T08:13:56.164Z,6900.00
2018-09-22T08:14:56.159Z,6356.00
2018-09-22T08:15:56.133Z,6248.00
2018-09-22T08:16:56.122Z,6760.00
2018-09-22T08:17:56.110Z,7156.00
2018-09-22T08:18:56.094Z,6908.00
2018-09-22T08:19:56.118Z,7308.00
2018-09-22T08:20:56.094Z,6932.00
2018-09-22T08:21:56.059Z,6744.00
2018-09-22T08:22:56.055Z,6248.00
2018-09-22T08:23:56.044Z,6068.00
2018-09-22T08:24:56.027Z,6256.00
2018-09-22T08:25:56.029Z,6036.00
2018-09-22T08:26:56.019Z,6052.00
2018-09-22T08:27:55.996Z,6056.00
2018-09-22T08:28:55.996Z,6008.00
2018-09-22T08:29:55.995Z,5948.00
2018-09-22T08:30:55.961Z,5788.00
2018-09-22T08:31:56.436Z,5748.00
2018-09-22T08:32:55.944Z,5604.00
2018-09-22T08:33:55.970Z,5552.00
2018-09-22T08:34:55.925Z,5556.00
2018-09-22T08:35:55.985Z,5708.00
2018-09-22T08:36:56.099Z,5648.00
2018-09-22T08:37:55.895Z,5620.00
2018-09-22T08:38:55.893Z,5756.00
2018-09-22T08:39:55.870Z,5856.00
2018-09-22T08:40:55.858Z,6004.00
2018-09-22T08:41:55.872Z,5856.00
2018-09-22T08:42:55.870Z,5728.00
2018-09-22T08:43:55.873Z,5596.00
2018-09-22T08:44:55.880Z,5560.00
2018-09-22T08:45:55.804Z,5644.00
2018-09-22T08:46:55.820Z,5740.00
2018-09-22T08:47:55.779Z,5760.00
2018-09-22T08:48:55.768Z,5520.00
2018-09-22T08:49:55.830Z,5312.00
2018-09-22T08:50:55.749Z,5120.00
2018-09-22T08:51:55.747Z,5048.00
2018-09-22T08:52:55.720Z,5040.00
2018-09-22T08:53:55.706Z,4964.00
2018-09-22T08:54:55.701Z,4888.00
2018-09-22T08:55:55.708Z,4708.00
2018-09-22T08:56:55.679Z,4476.00
2018-09-22T08:57:55.684Z,4400.00
2018-09-22T08:58:55.663Z,4404.00
2018-09-22T08:59:55.646Z,4256.00
2018-09-22T09:00:55.665Z,4488.00
2018-09-22T09:01:55.637Z,5028.00
2018-09-22T09:02:55.609Z,4552.00
2018-09-22T09:03:55.626Z,3944.00
2018-09-22T09:04:55.621Z,4104.00
2018-09-22T09:05:55.596Z,4384.00
2018-09-22T09:06:55.597Z,4684.00
2018-09-22T09:07:55.560Z,4164.00
2018-09-22T09:08:55.554Z,4068.00
2018-09-22T09:09:55.566Z,4024.00
2018-09-22T09:10:55.543Z,3924.00
2018-09-22T09:11:55.528Z,4160.00
2018-09-22T09:12:55.502Z,4120.00
2018-09-22T09:13:55.506Z,4504.00
2018-09-22T09:14:55.492Z,5820.00
2018-09-22T09:15:55.475Z,5124.00
2018-09-22T09:16:55.484Z,4284.00
2018-09-22T09:17:55.451Z,5076.00
2018-09-22T09:18:55.457Z,6408.00
2018-09-22T09:19:55.438Z,6688.00
2018-09-22T09:20:55.427Z,6660.00
2018-09-22T09:21:55.420Z,7092.00
2018-09-22T09:22:55.389Z,7320.00
2018-09-22T09:23:55.415Z,5380.00
2018-09-22T09:24:55.370Z,5048.00
2018-09-22T09:25:55.358Z,5128.00
2018-09-22T09:26:55.362Z,5276.00
2018-09-22T09:27:55.346Z,16576.00
2018-09-22T09:28:55.354Z,10372.00
2018-09-22T09:29:55.347Z,10456.00
2018-09-22T09:30:55.327Z,6440.00
2018-09-22T09:31:55.294Z,5332.00
2018-09-22T09:32:55.355Z,3624.00
2018-09-22T09:33:55.286Z,3604.00
2018-09-22T09:34:55.273Z,3656.00
2018-09-22T09:35:55.265Z,3496.00
2018-09-22T09:36:55.238Z,3340.00
2018-09-22T09:37:55.221Z,3280.00
2018-09-22T09:38:55.235Z,3320.00
2018-09-22T09:39:55.208Z,3588.00
2018-09-22T09:40:55.196Z,3724.00
2018-09-22T09:41:55.185Z,3400.00
2018-09-22T09:42:55.193Z,3252.00
2018-09-22T09:43:55.163Z,3272.00
2018-09-22T09:44:55.171Z,3368.00
2018-09-22T09:45:55.157Z,3568.00
2018-09-22T09:46:55.124Z,3340.00
2018-09-22T09:47:55.143Z,3244.00
2018-09-22T09:48:55.105Z,3332.00
2018-09-22T09:49:55.094Z,2852.00
2018-09-22T09:50:55.090Z,2952.00
2018-09-22T09:51:55.076Z,2872.00
2018-09-22T09:52:55.068Z,2668.00
2018-09-22T09:53:55.086Z,2740.00
2018-09-22T09:54:55.065Z,2852.00
2018-09-22T09:55:55.041Z,2760.00
2018-09-22T09:56:55.019Z,3000.00
2018-09-22T09:57:55.009Z,3100.00
2018-09-22T09:58:55.021Z,2996.00
2018-09-22T09:59:54.990Z,2656.00
2018-09-22T10:00:54.985Z,2268.00
2018-09-22T10:01:54.961Z,1652.00
2018-09-22T10:02:54.974Z,1308.00
2018-09-22T10:03:54.944Z,1088.00
2018-09-22T10:04:54.937Z,1284.00
2018-09-22T10:05:54.940Z,1916.00
2018-09-22T10:06:54.907Z,2416.00
2018-09-22T10:07:54.921Z,2840.00
2018-09-22T10:08:54.889Z,3140.00
2018-09-22T10:09:54.877Z,3076.00
2018-09-22T10:10:54.908Z,3112.00
2018-09-22T10:11:54.951Z,3016.00
2018-09-22T10:12:54.845Z,2712.00
2018-09-22T10:13:54.856Z,2520.00
2018-09-22T10:14:54.820Z,2576.00
2018-09-22T10:15:54.848Z,2392.00
2018-09-22T10:16:54.805Z,2016.00
2018-09-22T10:17:54.800Z,1936.00
2018-09-22T10:18:54.784Z,1956.00
2018-09-22T10:19:54.789Z,1716.00
2018-09-22T10:20:54.785Z,1932.00
2018-09-22T10:21:54.741Z,2432.00
2018-09-22T10:22:54.778Z,2804.00
2018-09-22T10:23:54.727Z,2772.00
2018-09-22T10:24:54.720Z,2832.00
2018-09-22T10:25:54.709Z,3020.00
2018-09-22T10:26:54.701Z,3012.00
2018-09-22T10:27:54.695Z,2880.00
2018-09-22T10:28:54.748Z,2780.00
2018-09-22T10:29:54.659Z,3124.00
2018-09-22T10:30:54.656Z,3052.00
2018-09-22T10:31:54.685Z,2912.00
2018-09-22T10:32:54.633Z,2792.00
2018-09-22T10:33:54.645Z,2648.00
2018-09-22T10:34:54.608Z,2708.00
2018-09-22T10:35:54.601Z,2668.00
2018-09-22T10:36:54.590Z,2652.00
2018-09-22T10:37:54.603Z,2820.00
2018-09-22T10:38:54.558Z,3144.00
2018-09-22T10:39:54.579Z,3116.00
2018-09-22T10:40:54.543Z,2944.00
2018-09-22T10:41:54.541Z,2888.00
2018-09-22T10:42:54.528Z,2996.00
2018-09-22T10:43:54.526Z,3232.00
2018-09-22T10:44:54.496Z,3396.00
2018-09-22T10:45:54.494Z,3028.00
2018-09-22T10:46:54.482Z,2900.00
2018-09-22T10:47:54.484Z,3068.00
2018-09-22T10:48:54.449Z,3148.00
2018-09-22T10:49:54.454Z,3528.00
2018-09-22T10:50:54.440Z,5024.00
2018-09-22T10:51:54.449Z,5412.00
2018-09-22T10:52:54.476Z,5604.00
2018-09-22T10:53:54.443Z,5556.00
2018-09-22T10:54:54.397Z,5344.00
2018-09-22T10:55:54.378Z,5332.00
2018-09-22T10:56:54.383Z,5200.00
2018-09-22T10:57:54.370Z,4856.00
2018-09-22T10:58:54.371Z,4676.00
2018-09-22T10:59:54.345Z,4496.00
2018-09-22T11:00:54.330Z,4308.00
2018-09-22T11:01:54.314Z,4080.00
2018-09-22T11:02:54.315Z,3828.00
2018-09-22T11:03:54.294Z,3480.00
2018-09-22T11:04:54.296Z,3084.00
2018-09-22T11:05:54.300Z,2652.00
2018-09-22T11:06:54.263Z,2176.00
2018-09-22T11:07:54.260Z,2140.00
2018-09-22T11:08:54.233Z,2328.00
2018-09-22T11:09:54.220Z,2476.00
2018-09-22T11:10:54.239Z,2468.00
2018-09-22T11:11:54.201Z,2456.00
2018-09-22T11:12:54.194Z,2372.00
2018-09-22T11:13:54.205Z,2308.00
2018-09-22T11:14:54.182Z,2328.00
2018-09-22T11:15:54.166Z,2436.00
2018-09-22T11:16:54.147Z,2532.00
2018-09-22T11:17:54.152Z,2756.00
2018-09-22T11:18:54.137Z,3072.00
2018-09-22T11:19:54.113Z,3196.00
2018-09-22T11:20:54.134Z,3088.00
2018-09-22T11:21:54.097Z,2992.00
2018-09-22T11:22:54.085Z,2900.00
2018-09-22T11:23:54.072Z,3084.00
2018-09-22T11:24:54.065Z,3088.00
2018-09-22T11:25:54.087Z,3068.00
2018-09-22T11:26:54.089Z,2940.00
2018-09-22T11:27:54.038Z,2912.00
2018-09-22T11:28:54.024Z,3004.00
2018-09-22T11:29:53.999Z,3224.00
2018-09-22T11:30:54.004Z,3572.00
2018-09-22T11:31:53.983Z,3796.00
2018-09-22T11:32:53.998Z,3924.00
2018-09-22T11:33:53.990Z,3860.00
2018-09-22T11:34:53.942Z,3728.00
2018-09-22T11:35:53.937Z,3532.00
2018-09-22T11:36:53.925Z,3408.00
2018-09-22T11:37:53.941Z,3320.00
2018-09-22T11:38:53.917Z,3200.00
2018-09-22T11:39:53.890Z,3288.00
2018-09-22T11:40:53.898Z,3480.00
2018-09-22T11:41:53.866Z,3652.00
2018-09-22T11:42:53.875Z,3652.00
2018-09-22T11:43:53.861Z,3732.00
2018-09-22T11:44:53.853Z,3792.00
2018-09-22T11:45:53.839Z,3780.00
2018-09-22T11:46:53.811Z,3860.00
2018-09-22T11:47:53.832Z,3896.00
2018-09-22T11:48:53.795Z,3784.00
2018-09-22T11:49:53.776Z,3688.00
2018-09-22T11:50:53.814Z,3464.00
2018-09-22T11:51:53.765Z,3356.00
2018-09-22T11:52:53.771Z,3412.00
2018-09-22T11:53:53.749Z,3540.00
2018-09-22T11:54:53.733Z,3620.00
2018-09-22T11:55:53.740Z,3676.00
2018-09-22T11:57:00.762Z,3696.00
2018-09-22T11:57:53.691Z,3536.00
2018-09-22T11:58:53.682Z,3392.00
2018-09-22T11:59:53.667Z,3312.00
2018-09-22T12:00:53.686Z,3340.00
2018-09-22T12:01:53.676Z,3004.00
2018-09-22T12:02:53.640Z,2688.00
2018-09-22T12:03:53.629Z,2584.00
2018-09-22T12:04:53.629Z,2540.00
2018-09-22T12:05:53.662Z,2508.00
2018-09-22T12:06:53.594Z,2464.00
2018-09-22T12:07:53.585Z,2636.00
2018-09-22T12:08:53.565Z,2884.00
2018-09-22T12:09:53.558Z,3100.00
2018-09-22T12:10:53.556Z,3164.00
2018-09-22T12:11:53.532Z,3028.00
2018-09-22T12:12:53.530Z,2728.00
2018-09-22T12:13:53.550Z,2364.00
2018-09-22T12:14:53.517Z,1976.00
2018-09-22T12:15:53.497Z,1912.00
2018-09-22T12:16:53.480Z,2092.00
2018-09-22T12:17:53.468Z,2136.00
2018-09-22T12:18:53.460Z,2044.00
2018-09-22T12:19:53.455Z,1916.00
2018-09-22T12:20:53.456Z,1640.00
2018-09-22T12:21:53.456Z,1380.00
2018-09-22T12:22:53.427Z,1192.00
2018-09-22T12:23:53.427Z,1124.00
2018-09-22T12:24:53.403Z,1184.00
2018-09-22T12:25:53.402Z,1304.00
2018-09-22T12:26:53.397Z,1564.00
2018-09-22T12:27:53.374Z,1808.00
2018-09-22T12:28:53.358Z,1864.00
2018-09-22T12:29:53.345Z,1824.00
2018-09-22T12:30:53.336Z,1804.00
2018-09-22T12:31:53.396Z,1664.00
2018-09-22T12:32:53.324Z,1404.00
2018-09-22T12:33:53.294Z,1252.00
2018-09-22T12:34:53.313Z,1148.00
2018-09-22T12:35:53.279Z,1016.00